Opa-locka, FL

5:38 PM EST on February 05, 2016 (GMT -0500)
Opa Locka | | Change Station
CLOSE
Current Station
Airport
Location: Opa Locka,
Elevation: 10 ft
Nearby Weather Stations

Elev 10 ft 25.91 °N, 80.28 °W | Updated 45 minutes ago

Overcast
Overcast
67 °F
Feels Like 67 °F
N
12
Wind Variable Wind from North

Today
High -- | Low -- °F
--% Chance of Precip.
Yesterday
High -- | Low -- °F
Precip. -- in
Pressure 30.14 in
Visibility 10.0 miles
Clouds Overcast 3700 ft
Dew Point 51 °F
Humidity 57%
Rainfall 0.34 in
Snow Depth Not available.
7:03 AM 6:07 PM
Waning Crescent, 9% visible
METAR KOPF 052153Z 01010KT 10SM OVC037 19/11 A3014 RMK AO2 SLP207 T01940106
Pressure 30.14 in
Visibility 10.0 miles
Clouds Overcast 3700 ft
Dew Point 51 °F
Humidity 57%
Rainfall 0.34 in
Snow Depth Not available.
7:03 AM 6:07 PM
Waning Crescent, 9% visible
METAR KOPF 052153Z 01010KT 10SM OVC037 19/11 A3014 RMK AO2 SLP207 T01940106

10-Day Weather Forecast

Almanac

Astronomy

Feb. 05, 2016 Rise Set
Actual Time
Civil Twilight
Nautical Twilight
Astronomical Twilight
Moon
Length of Visible Light
Length of Day
Tomorrow will be .
, % of the Moon is Illuminated

Today's Extremes

State Highs State Lows

Community

WunderPhotos

Upload Photos

1,890,879 photos uploaded!

WunderBlog® & News

Nearby

Air Quality

  Air Quality AQ Index Pollutant
Not available.

Snow Depth

Station Depth Elevation

Earthquake Activity

City Distance Mag. Time & Date
Minimum magnitude displayed is 2.5.

Coastal Water Temperatures

Place Temperature

Stations

Nearby Weather Stations

Station Location Temp. Windchill Dew Point Humidity Wind Precip. Elev Updated Type
                   

Watches & Warnings

There are currently no watches in effect.